Aérodrome :
LOGIN :

S'inscrire | Disclaimer

   EN    FR    IT 

 










Légende :    VFR   VFR Marginal   IFR   IFR Intensif   IFR Très Intensif
Visi : 
Plafond : 
>= 8 km
>= 3000ft
5 à 8 km
1000 à 3000 ft
1500m à 5 km
500 à 1000 ft
800 à 1500m
200 à 500 ft
< 800m
< 200 ft
Symboles :   Orages  Brouillard  Fortes neiges  Fortes précipitations  Vent > 20 kt
SIGMETs :   Divers  Orages  Givrage  Turbulence  Onde Orograph.  Cendres Volcan.







- Altitude de l'aérodrome : 14 ft
- Code IATA : BRE


EDDW - Bremen Neuenland

DERNIER METAR :
  • 251120Z 08010KT 050V110 9999 FEW047 BKN230 M01/M09 Q1033

METARs EXPIRÉS :
  • 251050Z 07010KT 030V100 9999 FEW047 BKN230 M02/M10 Q1034 TEMPO 4500 -SN
  • 251020Z 07010KT 9999 FEW043 BKN230 M02/M10 Q1034 NOSIG
  • 250950Z 06008KT 030V100 CAVOK M02/M11 Q1034 NOSIG
  • 250920Z 07007KT CAVOK M03/M11 Q1034 NOSIG
  • 250850Z 07008KT CAVOK M04/M10 Q1034 NOSIG

TAF TAF EDDW
Valide du 25 à 12h jusqu'au 26 à 12h UTC


251100Z 2512/2612 04009KT 9999 FEW035
TEMPO 2512/2517 3000 -SN
Pas de NOTAMs connus pour ce terrain.



MET'MAP, la Météo Aéronautique d'un coup d'oeil ! - Copyright ORBIFLY Décembre 2007 - Disclaimer

ORBIFLY MET'MAP TEAM :

Programmation & Développement : Alexandra Zaïnal
Conception & Développement : Baudouin d'Aumeries
Co-Programmation & Développement : Marc-Olivier Méhu
Soutien technique & logistique : Manuel Goepfert

Contact : metmap@orbifly.com




SOURCES & CREDITS :

   NOAA